createdAt,value
2017-12-15T00:00:23.184Z,99.90
2017-12-15T00:02:32.308Z,99.90
2017-12-15T00:04:33.359Z,99.90
2017-12-15T00:06:34.368Z,99.90
2017-12-15T00:08:35.364Z,99.90
2017-12-15T00:10:36.385Z,99.90
2017-12-15T00:12:37.360Z,99.90
2017-12-15T00:14:38.401Z,99.90
2017-12-15T00:16:41.944Z,99.90
2017-12-15T00:18:43.037Z,99.90
2017-12-15T00:20:44.089Z,99.90
2017-12-15T00:22:45.066Z,99.90
2017-12-15T00:24:46.071Z,99.90
2017-12-15T00:26:47.040Z,99.90
2017-12-15T00:28:48.008Z,99.90
2017-12-15T00:30:49.001Z,99.90
2017-12-15T00:32:52.743Z,99.90
2017-12-15T00:34:53.938Z,99.90
2017-12-15T00:36:58.040Z,99.90
2017-12-15T00:38:59.916Z,99.90
2017-12-15T00:41:03.189Z,99.90
2017-12-15T00:43:04.314Z,99.90
2017-12-15T00:45:05.363Z,99.90
2017-12-15T00:47:08.016Z,99.90
2017-12-15T00:49:13.431Z,99.90
2017-12-15T00:51:14.538Z,99.90
2017-12-15T00:53:16.659Z,99.90
2017-12-15T00:55:17.794Z,99.90
2017-12-15T00:57:18.915Z,99.90
2017-12-15T00:59:19.924Z,99.90
2017-12-15T01:01:20.892Z,99.90
2017-12-15T01:03:21.888Z,99.90
2017-12-15T01:05:22.925Z,99.90
2017-12-15T01:07:23.922Z,99.90
2017-12-15T01:09:24.919Z,99.90
2017-12-15T01:11:25.930Z,99.90
2017-12-15T01:13:27.005Z,99.90
2017-12-15T01:15:28.163Z,99.90
2017-12-15T01:17:29.305Z,99.90
2017-12-15T01:19:30.298Z,99.90
2017-12-15T01:21:31.481Z,99.90
2017-12-15T01:23:32.982Z,99.90
2017-12-15T01:25:34.092Z,99.90
2017-12-15T01:27:35.913Z,99.90
2017-12-15T01:29:36.934Z,99.90
2017-12-15T01:31:37.988Z,99.90
2017-12-15T01:33:39.019Z,99.90
2017-12-15T01:35:40.051Z,99.90
2017-12-15T01:37:41.025Z,99.90
2017-12-15T01:39:42.042Z,99.90
2017-12-15T01:41:43.014Z,99.90
2017-12-15T01:43:43.992Z,99.90
2017-12-15T01:45:45.340Z,99.90
2017-12-15T01:47:46.391Z,99.90
2017-12-15T01:49:47.388Z,99.90
2017-12-15T01:51:48.419Z,99.90
2017-12-15T01:53:49.644Z,99.90
2017-12-15T01:55:50.629Z,99.90
2017-12-15T01:57:51.644Z,99.90
2017-12-15T01:59:52.682Z,99.90
2017-12-15T02:01:57.509Z,99.90
2017-12-15T02:03:58.610Z,99.90
2017-12-15T02:05:59.594Z,99.90
2017-12-15T02:08:00.592Z,99.90
2017-12-15T02:10:01.619Z,99.90
2017-12-15T02:12:02.642Z,99.90
2017-12-15T02:14:03.651Z,99.90
2017-12-15T02:16:05.147Z,99.90
2017-12-15T02:18:06.166Z,99.90
2017-12-15T02:20:07.893Z,99.90
2017-12-15T02:22:08.917Z,99.90
2017-12-15T02:24:09.934Z,99.90
2017-12-15T02:26:11.000Z,99.90
2017-12-15T02:28:12.055Z,99.90
2017-12-15T02:30:13.121Z,99.90
2017-12-15T02:32:14.112Z,99.90
2017-12-15T02:34:15.073Z,99.90
2017-12-15T02:38:34.779Z,99.90
2017-12-15T02:40:35.783Z,99.90
2017-12-15T02:42:36.765Z,99.90
2017-12-15T02:44:37.793Z,99.90
2017-12-15T02:46:38.838Z,99.90
2017-12-15T02:48:39.834Z,99.90
2017-12-15T02:50:53.408Z,99.90
2017-12-15T02:52:54.448Z,99.90
2017-12-15T02:54:55.489Z,99.90
2017-12-15T02:56:56.622Z,99.90
2017-12-15T02:58:57.633Z,99.90
2017-12-15T03:00:58.645Z,99.90
2017-12-15T03:02:59.656Z,99.90
2017-12-15T03:05:24.991Z,99.90
2017-12-15T03:07:26.813Z,99.90
2017-12-15T03:09:27.924Z,99.90
2017-12-15T03:11:32.495Z,99.90
2017-12-15T03:13:35.430Z,99.90
2017-12-15T03:15:36.773Z,99.90
2017-12-15T03:17:37.813Z,99.90
2017-12-15T03:19:38.833Z,99.90
2017-12-15T03:21:39.890Z,99.90
2017-12-15T03:23:42.320Z,99.90
2017-12-15T03:25:43.378Z,99.90
2017-12-15T03:27:44.414Z,99.90
2017-12-15T03:29:46.970Z,99.90
2017-12-15T03:31:48.068Z,99.90
2017-12-15T03:33:49.053Z,99.90
2017-12-15T03:35:50.068Z,99.90
2017-12-15T03:37:51.615Z,99.90
2017-12-15T03:39:53.369Z,99.90
2017-12-15T03:41:54.471Z,99.90
2017-12-15T03:43:55.496Z,99.90
2017-12-15T03:45:56.609Z,99.90
2017-12-15T03:47:57.598Z,99.90
2017-12-15T03:49:58.631Z,99.90
2017-12-15T03:51:59.656Z,99.90
2017-12-15T03:54:01.042Z,99.90
2017-12-15T03:56:02.084Z,99.90
2017-12-15T03:58:03.089Z,99.90
2017-12-15T04:00:04.077Z,99.90
2017-12-15T04:02:05.049Z,99.90
2017-12-15T04:04:06.828Z,99.90
2017-12-15T04:06:07.870Z,99.90
2017-12-15T04:08:08.908Z,99.90
2017-12-15T04:10:10.701Z,99.90
2017-12-15T04:12:12.732Z,99.90
2017-12-15T04:14:13.754Z,99.90
2017-12-15T04:16:14.758Z,99.90
2017-12-15T04:18:18.856Z,99.90
2017-12-15T04:20:19.991Z,99.90
2017-12-15T04:22:21.772Z,99.90
2017-12-15T04:24:22.911Z,99.90
2017-12-15T04:26:24.134Z,99.90
2017-12-15T04:28:25.190Z,99.90
2017-12-15T04:30:26.841Z,99.90
2017-12-15T04:32:27.872Z,99.90
2017-12-15T04:34:28.829Z,99.90
2017-12-15T04:36:29.843Z,99.90
2017-12-15T04:38:30.837Z,99.90
2017-12-15T04:44:49.663Z,99.90
2017-12-15T04:46:50.657Z,99.90
2017-12-15T04:48:51.741Z,99.90
2017-12-15T04:50:52.774Z,99.90
2017-12-15T04:52:53.797Z,99.90
2017-12-15T04:54:54.827Z,99.90
2017-12-15T04:56:55.912Z,99.90
2017-12-15T04:58:56.948Z,99.90
2017-12-15T05:00:57.946Z,99.90
2017-12-15T05:02:59.001Z,99.90
2017-12-15T05:05:01.946Z,99.90
2017-12-15T05:07:04.336Z,99.90
2017-12-15T05:09:05.391Z,99.90
2017-12-15T05:11:08.888Z,99.90
2017-12-15T05:13:09.931Z,99.90
2017-12-15T05:15:11.162Z,99.90
2017-12-15T05:17:12.824Z,99.90
2017-12-15T05:19:14.702Z,99.90
2017-12-15T05:21:15.696Z,99.90
2017-12-15T05:23:17.422Z,99.90
2017-12-15T05:25:18.631Z,99.90
2017-12-15T05:27:19.585Z,99.90
2017-12-15T05:29:20.664Z,99.90
2017-12-15T05:31:21.653Z,99.90
2017-12-15T05:33:22.657Z,99.90
2017-12-15T05:35:23.657Z,99.90
2017-12-15T05:37:24.717Z,99.90
2017-12-15T05:39:25.756Z,99.90
2017-12-15T05:41:26.728Z,99.90
2017-12-15T05:43:28.382Z,99.90
2017-12-15T05:45:29.618Z,99.90
2017-12-15T05:47:30.668Z,99.90
2017-12-15T05:49:31.626Z,99.90
2017-12-15T05:51:32.697Z,99.90
2017-12-15T05:53:40.510Z,99.90
2017-12-15T05:55:41.629Z,99.90
2017-12-15T05:57:42.596Z,99.90
2017-12-15T05:59:44.155Z,99.90
2017-12-15T06:01:45.123Z,99.90
2017-12-15T06:03:46.173Z,99.90
2017-12-15T06:05:47.322Z,99.90
2017-12-15T06:07:49.136Z,99.90
2017-12-15T06:09:50.177Z,99.90
2017-12-15T06:11:51.148Z,99.90
2017-12-15T06:13:52.156Z,99.90
2017-12-15T06:15:53.430Z,99.90
2017-12-15T06:17:54.389Z,99.90
2017-12-15T06:19:55.393Z,99.90
2017-12-15T06:21:57.116Z,99.90
2017-12-15T06:23:58.094Z,99.90
2017-12-15T06:25:59.826Z,99.90
2017-12-15T06:28:00.808Z,99.90
2017-12-15T06:30:01.821Z,99.90
2017-12-15T06:32:03.157Z,99.90
2017-12-15T06:34:04.170Z,99.90
2017-12-15T06:36:05.351Z,99.90
2017-12-15T06:38:06.425Z,99.90
2017-12-15T06:40:07.445Z,99.90
2017-12-15T06:42:08.505Z,99.90
2017-12-15T06:44:09.541Z,99.90
2017-12-15T06:46:10.568Z,99.90
2017-12-15T06:48:11.594Z,99.90
2017-12-15T06:50:13.349Z,99.90
2017-12-15T06:52:15.085Z,99.90
2017-12-15T06:54:16.040Z,99.90
2017-12-15T06:56:17.060Z,99.90
2017-12-15T06:58:18.043Z,99.90
2017-12-15T07:00:20.057Z,99.90
2017-12-15T07:02:21.001Z,99.90
2017-12-15T07:04:21.989Z,99.90
2017-12-15T07:06:22.976Z,99.90
2017-12-15T07:08:23.962Z,99.90
2017-12-15T07:10:24.924Z,99.90
2017-12-15T07:12:25.896Z,99.90
2017-12-15T07:14:27.660Z,99.90
2017-12-15T07:16:29.377Z,99.90
2017-12-15T07:18:30.332Z,99.90
2017-12-15T07:20:31.652Z,99.90
2017-12-15T07:22:32.664Z,99.90
2017-12-15T07:24:34.411Z,99.90
2017-12-15T07:26:35.373Z,99.90
2017-12-15T07:28:36.345Z,99.90
2017-12-15T07:30:37.432Z,99.90
2017-12-15T07:32:38.461Z,99.90
2017-12-15T07:34:39.509Z,99.90
2017-12-15T07:36:40.480Z,99.90
2017-12-15T07:38:41.441Z,99.90
2017-12-15T07:40:42.444Z,99.90
2017-12-15T07:42:43.431Z,99.90
2017-12-15T07:44:44.406Z,99.90
2017-12-15T07:46:45.360Z,99.90
2017-12-15T07:48:47.057Z,99.90
2017-12-15T07:50:48.088Z,99.90
2017-12-15T07:52:49.049Z,99.90
2017-12-15T07:54:50.032Z,99.90
2017-12-15T07:56:51.038Z,99.90
2017-12-15T07:58:52.001Z,99.90
2017-12-15T08:00:53.176Z,99.90
2017-12-15T08:02:54.133Z,99.90
2017-12-15T08:04:55.097Z,99.90
2017-12-15T08:06:56.791Z,99.90
2017-12-15T08:08:57.767Z,99.90
2017-12-15T08:10:58.749Z,99.90
2017-12-15T08:13:00.454Z,99.90
2017-12-15T08:15:01.430Z,99.90
2017-12-15T08:17:02.412Z,99.90
2017-12-15T08:19:04.117Z,99.90
2017-12-15T08:21:05.108Z,99.90
2017-12-15T08:23:06.807Z,99.90
2017-12-15T08:25:07.788Z,99.90
2017-12-15T08:27:08.755Z,99.90
2017-12-15T08:29:09.713Z,99.90
2017-12-15T08:31:11.401Z,99.90
2017-12-15T08:33:12.341Z,99.90
2017-12-15T08:35:13.297Z,99.90
2017-12-15T08:37:14.273Z,99.90
2017-12-15T08:39:15.244Z,99.90
2017-12-15T08:41:16.212Z,99.90
2017-12-15T08:43:17.934Z,99.90
2017-12-15T08:45:18.913Z,99.90
2017-12-15T08:47:20.802Z,99.90
2017-12-15T08:49:21.753Z,99.90
2017-12-15T08:51:22.726Z,99.90
2017-12-15T08:53:23.708Z,99.90
2017-12-15T08:55:24.652Z,99.90
2017-12-15T08:57:25.620Z,99.90
2017-12-15T08:59:26.678Z,99.90
2017-12-15T09:01:27.778Z,99.90
2017-12-15T09:03:28.769Z,99.90
2017-12-15T09:05:29.745Z,99.90
2017-12-15T09:07:30.743Z,99.90
2017-12-15T09:09:32.458Z,99.90
2017-12-15T09:11:33.461Z,99.90
2017-12-15T09:13:35.209Z,99.90
2017-12-15T09:15:36.962Z,99.90
2017-12-15T09:17:37.937Z,99.90
2017-12-15T09:19:39.652Z,99.90
2017-12-15T09:21:40.608Z,99.90
2017-12-15T09:23:41.577Z,99.90
2017-12-15T09:25:43.300Z,99.90
2017-12-15T09:27:44.285Z,99.90
2017-12-15T09:29:45.994Z,99.90
2017-12-15T09:31:47.029Z,99.90
2017-12-15T09:33:47.994Z,99.90
2017-12-15T09:35:48.970Z,99.90
2017-12-15T09:37:49.933Z,99.90
2017-12-15T09:39:50.892Z,99.90
2017-12-15T09:41:52.604Z,99.90
2017-12-15T09:43:55.502Z,99.90
2017-12-15T09:45:56.466Z,99.90
2017-12-15T09:47:57.452Z,99.90
2017-12-15T09:49:58.417Z,99.90
2017-12-15T09:51:59.440Z,99.90
2017-12-15T09:54:00.423Z,99.90
2017-12-15T09:56:01.401Z,99.90
2017-12-15T09:58:02.393Z,99.90
2017-12-15T10:00:03.370Z,99.90
2017-12-15T10:02:04.330Z,99.90
2017-12-15T10:04:05.289Z,99.90
2017-12-15T10:06:06.265Z,99.90
2017-12-15T10:08:07.240Z,99.90
2017-12-15T10:10:09.017Z,99.90
2017-12-15T10:12:10.088Z,99.90
2017-12-15T10:14:11.103Z,99.90
2017-12-15T10:16:12.065Z,99.90
2017-12-15T10:18:13.046Z,99.90
2017-12-15T10:20:14.024Z,99.90
2017-12-15T10:22:14.982Z,99.90
2017-12-15T10:24:15.996Z,99.90
2017-12-15T10:26:16.932Z,99.90
2017-12-15T10:28:18.652Z,99.90
2017-12-15T10:30:19.974Z,99.90
2017-12-15T10:32:21.011Z,99.90
2017-12-15T10:34:22.729Z,99.90
2017-12-15T10:36:23.709Z,99.90
2017-12-15T10:38:25.419Z,99.90
2017-12-15T10:40:26.402Z,99.90
2017-12-15T10:42:27.353Z,99.90
2017-12-15T10:44:28.565Z,99.90
2017-12-15T10:46:29.552Z,99.90
2017-12-15T10:48:31.275Z,99.90
2017-12-15T10:50:32.252Z,99.90
2017-12-15T10:52:33.221Z,99.60
2017-12-15T10:54:34.180Z,99.90
2017-12-15T10:56:35.893Z,99.30
2017-12-15T10:58:36.856Z,99.30
2017-12-15T11:00:37.808Z,97.40
2017-12-15T11:02:38.805Z,94.10
2017-12-15T11:04:40.571Z,90.70
2017-12-15T11:06:41.569Z,91.40
2017-12-15T11:08:42.554Z,85.10
2017-12-15T11:10:43.526Z,75.50
2017-12-15T11:12:44.575Z,74.20
2017-12-15T11:14:45.576Z,74.40
2017-12-15T11:16:46.583Z,72.90
2017-12-15T11:18:47.563Z,71.50
2017-12-15T11:20:48.574Z,72.10
2017-12-15T11:22:49.609Z,70.00
2017-12-15T11:24:50.601Z,65.20
2017-12-15T11:26:52.325Z,71.10
2017-12-15T11:28:53.622Z,70.70
2017-12-15T11:30:54.655Z,81.80
2017-12-15T11:32:56.007Z,75.00
2017-12-15T11:34:57.980Z,88.00
2017-12-15T11:36:59.144Z,87.70
2017-12-15T11:39:04.511Z,86.70
2017-12-15T11:41:15.964Z,90.60
2017-12-15T11:43:20.465Z,92.50
2017-12-15T11:45:22.714Z,93.10
2017-12-15T11:47:30.993Z,93.60
2017-12-15T11:51:45.816Z,92.20
2017-12-15T11:53:46.937Z,90.50
2017-12-15T11:55:48.337Z,87.70
2017-12-15T11:57:49.904Z,90.20
2017-12-15T11:59:50.925Z,92.30
2017-12-15T12:01:53.044Z,91.50
2017-12-15T12:03:54.122Z,91.60
2017-12-15T12:05:55.154Z,92.00
2017-12-15T12:07:56.245Z,91.60
2017-12-15T12:09:57.978Z,89.20
2017-12-15T12:11:59.012Z,89.20
2017-12-15T12:14:00.005Z,76.50
2017-12-15T12:16:01.977Z,75.10
2017-12-15T12:18:03.020Z,75.10
2017-12-15T12:20:04.057Z,76.30
2017-12-15T12:22:05.048Z,79.40
2017-12-15T12:24:06.022Z,83.30
2017-12-15T12:26:07.234Z,82.60
2017-12-15T12:28:08.277Z,89.30
2017-12-15T12:30:09.297Z,90.40
2017-12-15T12:32:10.292Z,88.70
2017-12-15T12:34:11.332Z,90.20
2017-12-15T12:36:12.348Z,91.00
2017-12-15T12:38:13.392Z,92.20
2017-12-15T12:40:15.272Z,92.80
2017-12-15T12:42:16.249Z,92.80
2017-12-15T12:44:17.239Z,94.90
2017-12-15T12:46:18.966Z,95.70
2017-12-15T12:48:19.965Z,95.60
2017-12-15T12:50:21.732Z,95.90
2017-12-15T12:52:22.736Z,95.90
2017-12-15T12:54:23.728Z,96.00
2017-12-15T12:56:24.709Z,95.90
2017-12-15T12:58:25.681Z,95.20
2017-12-15T13:00:26.848Z,95.40
2017-12-15T13:02:28.699Z,94.60
2017-12-15T13:04:29.836Z,94.50
2017-12-15T13:06:30.824Z,93.90
2017-12-15T13:08:32.544Z,90.40
2017-12-15T13:10:33.537Z,90.20
2017-12-15T13:12:35.268Z,90.30
2017-12-15T13:14:36.294Z,90.30
2017-12-15T13:16:37.539Z,90.40
2017-12-15T13:18:38.549Z,91.00
2017-12-15T13:20:39.736Z,92.50
2017-12-15T13:22:42.437Z,92.70
2017-12-15T13:24:44.134Z,93.20
2017-12-15T13:26:46.040Z,93.30
2017-12-15T13:28:47.021Z,93.70
2017-12-15T13:30:49.627Z,93.20
2017-12-15T13:32:50.622Z,92.10
2017-12-15T13:34:59.050Z,92.90
2017-12-15T13:37:00.083Z,91.70
2017-12-15T13:39:01.086Z,92.60
2017-12-15T13:41:02.068Z,92.90
2017-12-15T13:43:04.261Z,93.90
2017-12-15T13:45:05.313Z,94.20
2017-12-15T13:47:06.292Z,94.50
2017-12-15T13:49:07.276Z,95.50
2017-12-15T13:51:09.429Z,95.50
2017-12-15T13:53:10.509Z,95.50
2017-12-15T13:55:11.571Z,96.00
2017-12-15T13:57:12.694Z,96.20
2017-12-15T13:59:13.711Z,96.90
2017-12-15T14:01:15.397Z,97.40
2017-12-15T14:03:16.466Z,96.50
2017-12-15T14:05:17.448Z,96.40
2017-12-15T14:07:19.356Z,95.90
2017-12-15T14:09:20.721Z,96.50
2017-12-15T14:11:21.748Z,97.10
2017-12-15T14:13:23.465Z,96.10
2017-12-15T14:15:24.605Z,96.00
2017-12-15T14:17:25.868Z,96.50
2017-12-15T14:19:26.845Z,96.70
2017-12-15T14:21:27.788Z,96.60
2017-12-15T14:23:28.770Z,96.70
2017-12-15T14:25:30.496Z,97.00
2017-12-15T14:27:31.486Z,97.10
2017-12-15T14:29:32.457Z,97.40
2017-12-15T14:31:33.437Z,97.40
2017-12-15T14:33:34.441Z,97.50
2017-12-15T14:35:35.448Z,97.10
2017-12-15T14:37:36.441Z,97.10
2017-12-15T14:39:37.433Z,97.60
2017-12-15T14:41:38.500Z,97.80
2017-12-15T14:43:40.992Z,97.80
2017-12-15T14:45:42.054Z,97.80
2017-12-15T14:47:43.088Z,98.20
2017-12-15T14:49:44.110Z,98.10
2017-12-15T14:51:45.074Z,97.50
2017-12-15T14:53:46.081Z,97.80
2017-12-15T14:55:48.746Z,98.00
2017-12-15T14:57:49.737Z,97.80
2017-12-15T14:59:53.524Z,98.00
2017-12-15T15:01:54.713Z,98.10
2017-12-15T15:03:56.415Z,98.50
2017-12-15T15:05:57.399Z,98.40
2017-12-15T15:07:58.389Z,98.50
2017-12-15T15:09:59.423Z,98.60
2017-12-15T15:12:00.989Z,99.00
2017-12-15T15:14:02.164Z,98.90
2017-12-15T15:18:59.061Z,99.20
2017-12-15T15:21:00.048Z,99.40
2017-12-15T15:23:01.016Z,99.50
2017-12-15T15:25:04.683Z,99.60
2017-12-15T15:27:05.660Z,99.80
2017-12-15T15:29:06.638Z,99.90
2017-12-15T15:31:09.782Z,99.90
2017-12-15T15:33:10.913Z,99.90
2017-12-15T15:35:12.843Z,99.90
2017-12-15T15:37:13.890Z,99.90
2017-12-15T15:39:14.871Z,99.90
2017-12-15T15:41:15.880Z,99.90
2017-12-15T15:43:16.869Z,99.90
2017-12-15T15:45:17.851Z,99.90
2017-12-15T15:47:19.540Z,99.90
2017-12-15T15:49:20.496Z,99.90
2017-12-15T15:51:22.260Z,99.90
2017-12-15T15:53:23.237Z,99.90
2017-12-15T15:55:24.187Z,99.90
2017-12-15T15:57:25.378Z,99.90
2017-12-15T15:59:26.364Z,99.90
2017-12-15T16:01:27.344Z,99.90
2017-12-15T16:03:29.510Z,99.90
2017-12-15T16:05:30.676Z,99.90
2017-12-15T16:07:32.456Z,99.90
2017-12-15T16:09:35.373Z,99.90
2017-12-15T16:11:36.364Z,99.90
2017-12-15T16:13:37.349Z,99.90
2017-12-15T16:15:40.404Z,99.90
2017-12-15T16:17:41.681Z,99.90
2017-12-15T16:19:42.861Z,99.90
2017-12-15T16:21:43.852Z,99.90
2017-12-15T16:23:44.870Z,99.90
2017-12-15T16:25:45.867Z,99.90
2017-12-15T16:27:46.872Z,99.90
2017-12-15T16:29:47.872Z,99.90
2017-12-15T16:31:48.918Z,99.90
2017-12-15T16:33:50.880Z,99.90
2017-12-15T16:35:51.991Z,99.90
2017-12-15T16:38:01.853Z,99.90
2017-12-15T16:40:03.728Z,99.90
2017-12-15T16:42:06.928Z,99.90
2017-12-15T16:44:08.724Z,99.90
2017-12-15T16:46:09.975Z,99.90
2017-12-15T16:48:11.808Z,99.90
2017-12-15T16:50:13.332Z,99.90
2017-12-15T16:52:14.582Z,99.90
2017-12-15T16:54:15.574Z,99.90
2017-12-15T16:56:16.584Z,99.90
2017-12-15T16:58:17.671Z,99.90
2017-12-15T17:00:18.664Z,99.90
2017-12-15T17:02:19.908Z,99.90
2017-12-15T17:04:21.157Z,99.90
2017-12-15T17:06:22.213Z,99.90
2017-12-15T17:08:23.234Z,99.90
2017-12-15T17:10:34.482Z,99.90
2017-12-15T17:12:36.268Z,99.90
2017-12-15T17:14:37.300Z,99.90
2017-12-15T17:16:38.324Z,99.90
2017-12-15T17:18:40.503Z,99.90
2017-12-15T17:20:41.526Z,99.90
2017-12-15T17:22:43.284Z,99.90
2017-12-15T17:24:45.007Z,99.90
2017-12-15T17:26:45.993Z,99.90
2017-12-15T17:28:47.732Z,99.90
2017-12-15T17:30:49.071Z,99.90
2017-12-15T17:32:50.186Z,99.90
2017-12-15T17:34:51.168Z,99.90
2017-12-15T17:36:52.137Z,99.90
2017-12-15T17:38:53.172Z,99.90
2017-12-15T17:40:55.675Z,99.90
2017-12-15T17:43:03.586Z,99.90
2017-12-15T17:45:05.215Z,99.90
2017-12-15T17:47:07.440Z,99.90
2017-12-15T17:49:08.557Z,99.90
2017-12-15T17:51:09.613Z,99.90
2017-12-15T17:53:10.637Z,99.90
2017-12-15T17:55:11.772Z,99.90
2017-12-15T17:57:12.748Z,99.90
2017-12-15T17:59:13.761Z,99.90
2017-12-15T18:01:14.748Z,99.90
2017-12-15T18:03:15.741Z,99.90
2017-12-15T18:05:16.773Z,99.90
2017-12-15T18:07:18.802Z,99.90
2017-12-15T18:09:19.822Z,99.90
2017-12-15T18:11:24.093Z,99.90
2017-12-15T18:13:25.116Z,99.90
2017-12-15T18:15:26.157Z,99.90
2017-12-15T18:17:27.201Z,99.90
2017-12-15T18:19:28.265Z,99.90
2017-12-15T18:21:30.033Z,99.90
2017-12-15T18:23:31.020Z,99.90
2017-12-15T18:25:32.007Z,99.90
2017-12-15T18:27:33.790Z,99.90
2017-12-15T18:29:34.766Z,99.90
2017-12-15T18:31:35.760Z,99.90
2017-12-15T18:33:37.550Z,99.90
2017-12-15T18:35:38.568Z,99.90
2017-12-15T18:37:40.339Z,99.90
2017-12-15T18:39:41.337Z,99.90
2017-12-15T18:41:42.433Z,99.90
2017-12-15T18:43:43.422Z,99.90
2017-12-15T18:45:44.483Z,99.90
2017-12-15T18:47:45.478Z,99.90
2017-12-15T18:49:47.220Z,99.90
2017-12-15T18:51:48.253Z,99.90
2017-12-15T18:53:49.277Z,99.90
2017-12-15T18:55:50.313Z,99.90
2017-12-15T18:57:51.320Z,99.90
2017-12-15T18:59:52.304Z,99.90
2017-12-15T19:01:53.455Z,99.90
2017-12-15T19:03:54.459Z,99.90
2017-12-15T19:05:55.508Z,99.90
2017-12-15T19:07:56.524Z,99.90
2017-12-15T19:09:57.533Z,99.90
2017-12-15T19:11:59.326Z,99.90
2017-12-15T19:14:00.365Z,99.90
2017-12-15T19:16:01.466Z,99.90
2017-12-15T19:18:02.544Z,99.90
2017-12-15T19:20:04.300Z,99.90
2017-12-15T19:22:06.045Z,99.90
2017-12-15T19:24:07.309Z,99.90
2017-12-15T19:26:08.409Z,99.90
2017-12-15T19:28:09.464Z,99.90
2017-12-15T19:30:10.462Z,99.90
2017-12-15T19:32:12.206Z,99.90
2017-12-15T19:34:13.198Z,99.90
2017-12-15T19:36:14.202Z,99.90
2017-12-15T19:38:15.223Z,99.90
2017-12-15T19:40:16.260Z,99.90
2017-12-15T19:42:17.260Z,99.90
2017-12-15T19:44:19.012Z,99.90
2017-12-15T19:46:20.884Z,99.90
2017-12-15T19:48:22.725Z,99.90
2017-12-15T19:50:23.760Z,99.90
2017-12-15T19:52:24.798Z,99.90
2017-12-15T19:54:25.981Z,99.90
2017-12-15T19:56:27.007Z,99.90
2017-12-15T19:58:28.323Z,99.90
2017-12-15T20:00:29.353Z,99.90
2017-12-15T20:02:31.091Z,99.90
2017-12-15T20:04:32.132Z,99.90
2017-12-15T20:06:33.129Z,99.90
2017-12-15T20:08:34.140Z,99.90
2017-12-15T20:10:35.148Z,99.90
2017-12-15T20:12:36.236Z,99.90
2017-12-15T20:14:37.242Z,99.90
2017-12-15T20:16:38.243Z,99.90
2017-12-15T20:18:40.012Z,99.90
2017-12-15T20:20:41.864Z,99.90
2017-12-15T20:22:42.909Z,99.90
2017-12-15T20:24:43.945Z,99.90
2017-12-15T20:26:45.791Z,99.90
2017-12-15T20:28:46.940Z,99.90
2017-12-15T20:30:47.980Z,99.90
2017-12-15T20:32:48.984Z,99.90
2017-12-15T20:34:49.961Z,99.90
2017-12-15T20:36:51.069Z,99.90
2017-12-15T20:38:52.098Z,99.90
2017-12-15T20:40:53.139Z,99.90
2017-12-15T20:42:54.133Z,99.90
2017-12-15T20:44:56.011Z,99.90
2017-12-15T20:46:57.098Z,99.90
2017-12-15T20:48:58.120Z,99.90
2017-12-15T20:50:59.142Z,99.90
2017-12-15T20:53:00.171Z,99.90
2017-12-15T20:55:01.182Z,99.90
2017-12-15T20:57:02.212Z,99.90
2017-12-15T20:59:03.256Z,99.90
2017-12-15T21:01:04.306Z,99.90
2017-12-15T21:03:05.387Z,99.90
2017-12-15T21:05:06.411Z,99.90
2017-12-15T21:07:07.477Z,99.90
2017-12-15T21:09:08.568Z,99.90
2017-12-15T21:11:09.618Z,99.90
2017-12-15T21:13:10.632Z,99.90
2017-12-15T21:15:11.648Z,99.90
2017-12-15T21:17:12.653Z,99.90
2017-12-15T21:19:13.642Z,99.90
2017-12-15T21:21:14.639Z,99.90
2017-12-15T21:23:16.382Z,99.90
2017-12-15T21:25:17.397Z,99.90
2017-12-15T21:27:18.480Z,99.90
2017-12-15T21:29:19.575Z,99.90
2017-12-15T21:31:20.604Z,99.90
2017-12-15T21:33:21.570Z,99.90
2017-12-15T21:35:22.641Z,99.90
2017-12-15T21:37:23.661Z,99.90
2017-12-15T21:39:24.676Z,99.90
2017-12-15T21:41:26.478Z,99.90
2017-12-15T21:43:27.488Z,99.90
2017-12-15T21:45:28.525Z,99.90
2017-12-15T21:47:30.268Z,99.90
2017-12-15T21:49:31.294Z,99.90
2017-12-15T21:51:32.265Z,99.90
2017-12-15T21:53:33.228Z,99.90
2017-12-15T21:56:55.235Z,99.90
2017-12-15T21:58:56.278Z,99.90
2017-12-15T22:00:57.303Z,99.90
2017-12-15T22:02:58.324Z,99.90
2017-12-15T22:05:00.061Z,99.90
2017-12-15T22:07:01.098Z,99.90
2017-12-15T22:09:02.117Z,99.90
2017-12-15T22:11:03.117Z,99.90
2017-12-15T22:13:04.138Z,99.90
2017-12-15T22:15:05.139Z,99.90
2017-12-15T22:17:06.860Z,99.90
2017-12-15T22:19:07.857Z,99.90
2017-12-15T22:21:08.911Z,99.90
2017-12-15T22:23:09.925Z,99.90
2017-12-15T22:25:10.907Z,99.90
2017-12-15T22:27:11.905Z,99.90
2017-12-15T22:29:12.919Z,99.90
2017-12-15T22:31:13.981Z,99.90
2017-12-15T22:33:15.010Z,99.90
2017-12-15T22:35:16.026Z,99.90
2017-12-15T22:37:17.019Z,99.90
2017-12-15T22:39:18.056Z,99.90
2017-12-15T22:41:19.009Z,99.90
2017-12-15T22:43:20.083Z,99.90
2017-12-15T22:45:21.101Z,99.90
2017-12-15T22:47:22.107Z,99.90
2017-12-15T22:49:23.135Z,99.90
2017-12-15T22:51:24.220Z,99.90
2017-12-15T22:53:25.254Z,99.90
2017-12-15T22:55:26.978Z,99.90
2017-12-15T22:57:28.071Z,99.90
2017-12-15T22:59:29.306Z,99.90
2017-12-15T23:01:31.075Z,99.90
2017-12-15T23:03:32.888Z,99.90
2017-12-15T23:05:33.899Z,99.90
2017-12-15T23:07:35.547Z,99.90
2017-12-15T23:09:36.546Z,99.90
2017-12-15T23:11:37.521Z,99.90
2017-12-15T23:13:38.464Z,99.90
2017-12-15T23:15:39.435Z,99.90
2017-12-15T23:17:41.164Z,99.90
2017-12-15T23:19:42.146Z,99.90
2017-12-15T23:21:43.879Z,99.90
2017-12-15T23:23:44.903Z,99.90
2017-12-15T23:25:45.920Z,99.90
2017-12-15T23:27:46.902Z,99.90
2017-12-15T23:29:48.694Z,99.90
2017-12-15T23:31:49.680Z,99.90
2017-12-15T23:33:50.672Z,99.90
2017-12-15T23:35:51.713Z,99.90
2017-12-15T23:37:52.723Z,99.90
2017-12-15T23:39:53.773Z,99.90
2017-12-15T23:41:54.799Z,99.90
2017-12-15T23:43:56.536Z,99.90
2017-12-15T23:45:57.541Z,99.90
2017-12-15T23:47:58.577Z,99.90
2017-12-15T23:49:59.626Z,99.90
2017-12-15T23:52:00.821Z,99.90
2017-12-15T23:54:01.837Z,99.90
2017-12-15T23:56:15.087Z,99.90
2017-12-15T23:58:16.086Z,99.90
